sensor_id;sensor_type;location;lat;lon;timestamp;P1;durP1;ratioP1;P2;durP2;ratioP2
8675;SDS011;4375;52.486;13.424;2022-11-15T00:00:04;63.93;;;26.97;;
8675;SDS011;4375;52.486;13.424;2022-11-15T00:02:30;56.80;;;27.27;;
8675;SDS011;4375;52.486;13.424;2022-11-15T00:04:56;56.83;;;26.77;;
8675;SDS011;4375;52.486;13.424;2022-11-15T00:07:21;64.37;;;27.83;;
8675;SDS011;4375;52.486;13.424;2022-11-15T00:09:47;57.03;;;26.30;;
8675;SDS011;4375;52.486;13.424;2022-11-15T00:12:13;55.20;;;27.13;;
8675;SDS011;4375;52.486;13.424;2022-11-15T00:14:38;62.00;;;27.93;;
8675;SDS011;4375;52.486;13.424;2022-11-15T00:17:04;60.63;;;28.90;;
8675;SDS011;4375;52.486;13.424;2022-11-15T00:19:29;57.60;;;28.23;;
8675;SDS011;4375;52.486;13.424;2022-11-15T00:21:55;53.00;;;25.93;;
8675;SDS011;4375;52.486;13.424;2022-11-15T00:24:20;54.80;;;26.50;;
8675;SDS011;4375;52.486;13.424;2022-11-15T00:26:46;67.13;;;27.93;;
8675;SDS011;4375;52.486;13.424;2022-11-15T00:29:12;56.93;;;27.03;;
8675;SDS011;4375;52.486;13.424;2022-11-15T00:31:38;63.33;;;30.67;;
8675;SDS011;4375;52.486;13.424;2022-11-15T00:34:03;60.57;;;29.40;;
8675;SDS011;4375;52.486;13.424;2022-11-15T00:36:29;57.23;;;26.93;;
8675;SDS011;4375;52.486;13.424;2022-11-15T00:38:58;62.93;;;28.93;;
8675;SDS011;4375;52.486;13.424;2022-11-15T00:41:23;64.13;;;27.97;;
8675;SDS011;4375;52.486;13.424;2022-11-15T00:43:49;61.67;;;28.60;;
8675;SDS011;4375;52.486;13.424;2022-11-15T00:46:15;61.67;;;28.00;;
8675;SDS011;4375;52.486;13.424;2022-11-15T00:48:40;53.50;;;27.87;;
8675;SDS011;4375;52.486;13.424;2022-11-15T00:51:06;58.47;;;27.70;;
8675;SDS011;4375;52.486;13.424;2022-11-15T00:53:31;56.80;;;27.73;;
8675;SDS011;4375;52.486;13.424;2022-11-15T00:55:57;59.07;;;28.77;;
8675;SDS011;4375;52.486;13.424;2022-11-15T00:58:22;60.30;;;28.00;;
8675;SDS011;4375;52.486;13.424;2022-11-15T01:00:48;58.40;;;27.23;;
8675;SDS011;4375;52.486;13.424;2022-11-15T01:03:14;60.40;;;28.57;;
8675;SDS011;4375;52.486;13.424;2022-11-15T01:05:39;65.73;;;29.90;;
8675;SDS011;4375;52.486;13.424;2022-11-15T01:08:05;56.20;;;27.63;;
8675;SDS011;4375;52.486;13.424;2022-11-15T01:10:30;58.80;;;27.23;;
8675;SDS011;4375;52.486;13.424;2022-11-15T01:12:56;66.20;;;29.77;;
8675;SDS011;4375;52.486;13.424;2022-11-15T01:15:22;60.73;;;26.57;;
8675;SDS011;4375;52.486;13.424;2022-11-15T01:17:48;63.33;;;27.87;;
8675;SDS011;4375;52.486;13.424;2022-11-15T01:20:13;56.30;;;28.30;;
8675;SDS011;4375;52.486;13.424;2022-11-15T01:22:39;58.57;;;26.87;;
8675;SDS011;4375;52.486;13.424;2022-11-15T01:25:04;57.53;;;27.40;;
8675;SDS011;4375;52.486;13.424;2022-11-15T01:27:30;62.23;;;27.70;;
8675;SDS011;4375;52.486;13.424;2022-11-15T01:29:56;60.77;;;28.50;;
8675;SDS011;4375;52.486;13.424;2022-11-15T01:32:21;59.47;;;27.00;;
8675;SDS011;4375;52.486;13.424;2022-11-15T01:34:47;57.97;;;27.63;;
8675;SDS011;4375;52.486;13.424;2022-11-15T01:37:12;59.00;;;26.53;;
8675;SDS011;4375;52.486;13.424;2022-11-15T01:39:38;57.20;;;27.73;;
8675;SDS011;4375;52.486;13.424;2022-11-15T01:42:04;61.20;;;27.53;;
8675;SDS011;4375;52.486;13.424;2022-11-15T01:47:11;59.63;;;28.00;;
8675;SDS011;4375;52.486;13.424;2022-11-15T01:52:27;55.17;;;27.40;;
8675;SDS011;4375;52.486;13.424;2022-11-15T01:55:09;59.80;;;27.70;;
8675;SDS011;4375;52.486;13.424;2022-11-15T01:57:40;57.80;;;27.87;;
8675;SDS011;4375;52.486;13.424;2022-11-15T02:00:10;62.27;;;28.73;;
8675;SDS011;4375;52.486;13.424;2022-11-15T02:02:36;59.73;;;28.83;;
8675;SDS011;4375;52.486;13.424;2022-11-15T02:05:03;65.37;;;29.50;;
8675;SDS011;4375;52.486;13.424;2022-11-15T02:07:29;58.60;;;26.73;;
8675;SDS011;4375;52.486;13.424;2022-11-15T02:10:01;55.30;;;28.20;;
8675;SDS011;4375;52.486;13.424;2022-11-15T02:12:37;65.60;;;28.60;;
8675;SDS011;4375;52.486;13.424;2022-11-15T02:15:04;60.53;;;27.60;;
8675;SDS011;4375;52.486;13.424;2022-11-15T02:33:46;53.10;;;25.80;;
8675;SDS011;4375;52.486;13.424;2022-11-15T02:37:11;60.70;;;28.20;;
8675;SDS011;4375;52.486;13.424;2022-11-15T02:39:27;63.00;;;29.77;;
8675;SDS011;4375;52.486;13.424;2022-11-15T02:45:09;63.30;;;30.10;;
8675;SDS011;4375;52.486;13.424;2022-11-15T02:47:44;60.67;;;29.10;;
8675;SDS011;4375;52.486;13.424;2022-11-15T02:50:16;63.83;;;31.37;;
8675;SDS011;4375;52.486;13.424;2022-11-15T02:52:45;58.60;;;29.13;;
8675;SDS011;4375;52.486;13.424;2022-11-15T02:55:28;60.47;;;28.37;;
8675;SDS011;4375;52.486;13.424;2022-11-15T03:00:35;55.73;;;27.47;;
8675;SDS011;4375;52.486;13.424;2022-11-15T03:03:17;61.30;;;27.83;;
8675;SDS011;4375;52.486;13.424;2022-11-15T03:06:14;62.43;;;28.40;;
8675;SDS011;4375;52.486;13.424;2022-11-15T03:11:27;63.60;;;27.47;;
8675;SDS011;4375;52.486;13.424;2022-11-15T03:14:20;61.13;;;29.97;;
8675;SDS011;4375;52.486;13.424;2022-11-15T03:19:40;65.20;;;28.17;;
8675;SDS011;4375;52.486;13.424;2022-11-15T03:22:08;67.30;;;29.20;;
8675;SDS011;4375;52.486;13.424;2022-11-15T03:24:39;60.20;;;28.87;;
8675;SDS011;4375;52.486;13.424;2022-11-15T03:27:07;68.53;;;28.70;;
8675;SDS011;4375;52.486;13.424;2022-11-15T03:29:39;61.97;;;29.30;;
8675;SDS011;4375;52.486;13.424;2022-11-15T03:32:10;55.00;;;26.43;;
8675;SDS011;4375;52.486;13.424;2022-11-15T03:35:40;62.33;;;27.33;;
8675;SDS011;4375;52.486;13.424;2022-11-15T03:40:11;58.50;;;27.70;;
8675;SDS011;4375;52.486;13.424;2022-11-15T03:42:43;57.60;;;27.73;;
8675;SDS011;4375;52.486;13.424;2022-11-15T03:45:14;63.57;;;28.17;;
8675;SDS011;4375;52.486;13.424;2022-11-15T03:47:57;55.30;;;25.97;;
8675;SDS011;4375;52.486;13.424;2022-11-15T03:50:30;61.83;;;27.73;;
8675;SDS011;4375;52.486;13.424;2022-11-15T03:52:56;55.03;;;27.23;;
8675;SDS011;4375;52.486;13.424;2022-11-15T03:55:24;58.07;;;27.93;;
8675;SDS011;4375;52.486;13.424;2022-11-15T03:57:51;59.67;;;27.30;;
8675;SDS011;4375;52.486;13.424;2022-11-15T04:00:19;64.23;;;29.17;;
8675;SDS011;4375;52.486;13.424;2022-11-15T04:02:45;61.83;;;28.53;;
8675;SDS011;4375;52.486;13.424;2022-11-15T04:05:10;57.37;;;27.10;;
8675;SDS011;4375;52.486;13.424;2022-11-15T04:07:36;59.20;;;28.23;;
8675;SDS011;4375;52.486;13.424;2022-11-15T04:10:02;56.73;;;27.97;;
8675;SDS011;4375;52.486;13.424;2022-11-15T04:12:35;60.10;;;28.50;;
8675;SDS011;4375;52.486;13.424;2022-11-15T04:17:42;58.23;;;26.87;;
8675;SDS011;4375;52.486;13.424;2022-11-15T04:20:11;56.60;;;25.70;;
8675;SDS011;4375;52.486;13.424;2022-11-15T04:23:01;57.27;;;27.40;;
8675;SDS011;4375;52.486;13.424;2022-11-15T04:25:51;61.47;;;27.03;;
8675;SDS011;4375;52.486;13.424;2022-11-15T04:28:18;64.40;;;27.83;;
8675;SDS011;4375;52.486;13.424;2022-11-15T04:30:44;59.10;;;27.40;;
8675;SDS011;4375;52.486;13.424;2022-11-15T04:33:10;59.07;;;25.90;;
8675;SDS011;4375;52.486;13.424;2022-11-15T04:35:36;58.50;;;26.60;;
8675;SDS011;4375;52.486;13.424;2022-11-15T04:38:02;59.70;;;27.70;;
8675;SDS011;4375;52.486;13.424;2022-11-15T04:40:29;55.73;;;26.17;;
8675;SDS011;4375;52.486;13.424;2022-11-15T04:42:55;54.57;;;25.50;;
8675;SDS011;4375;52.486;13.424;2022-11-15T04:45:21;53.63;;;26.77;;
8675;SDS011;4375;52.486;13.424;2022-11-15T04:47:46;58.47;;;27.57;;
8675;SDS011;4375;52.486;13.424;2022-11-15T04:50:15;57.10;;;26.17;;
8675;SDS011;4375;52.486;13.424;2022-11-15T04:52:50;61.17;;;27.37;;
8675;SDS011;4375;52.486;13.424;2022-11-15T04:55:16;57.93;;;26.27;;
8675;SDS011;4375;52.486;13.424;2022-11-15T04:57:42;52.13;;;25.90;;
8675;SDS011;4375;52.486;13.424;2022-11-15T05:00:09;62.27;;;29.57;;
8675;SDS011;4375;52.486;13.424;2022-11-15T05:02:37;69.60;;;29.37;;
8675;SDS011;4375;52.486;13.424;2022-11-15T05:05:21;59.33;;;29.07;;
8675;SDS011;4375;52.486;13.424;2022-11-15T05:07:47;58.70;;;25.97;;
8675;SDS011;4375;52.486;13.424;2022-11-15T05:10:12;61.57;;;26.70;;
8675;SDS011;4375;52.486;13.424;2022-11-15T05:12:38;53.23;;;26.73;;
8675;SDS011;4375;52.486;13.424;2022-11-15T05:15:04;58.40;;;28.10;;
8675;SDS011;4375;52.486;13.424;2022-11-15T05:17:30;63.67;;;26.30;;
8675;SDS011;4375;52.486;13.424;2022-11-15T05:19:55;60.00;;;28.33;;
8675;SDS011;4375;52.486;13.424;2022-11-15T05:22:21;60.97;;;29.00;;
8675;SDS011;4375;52.486;13.424;2022-11-15T05:24:47;62.63;;;27.33;;
8675;SDS011;4375;52.486;13.424;2022-11-15T05:27:12;58.57;;;27.13;;
8675;SDS011;4375;52.486;13.424;2022-11-15T05:29:38;58.47;;;28.17;;
8675;SDS011;4375;52.486;13.424;2022-11-15T05:32:06;59.17;;;29.20;;
8675;SDS011;4375;52.486;13.424;2022-11-15T05:34:34;64.03;;;28.30;;
8675;SDS011;4375;52.486;13.424;2022-11-15T05:37:00;55.53;;;26.60;;
8675;SDS011;4375;52.486;13.424;2022-11-15T05:39:26;62.90;;;27.40;;
8675;SDS011;4375;52.486;13.424;2022-11-15T05:41:55;56.37;;;26.50;;
8675;SDS011;4375;52.486;13.424;2022-11-15T05:44:29;61.63;;;26.53;;
8675;SDS011;4375;52.486;13.424;2022-11-15T05:46:57;63.90;;;30.40;;
8675;SDS011;4375;52.486;13.424;2022-11-15T05:49:24;57.97;;;27.70;;
8675;SDS011;4375;52.486;13.424;2022-11-15T05:51:54;62.33;;;26.40;;
8675;SDS011;4375;52.486;13.424;2022-11-15T05:54:20;59.47;;;27.73;;
8675;SDS011;4375;52.486;13.424;2022-11-15T05:56:48;59.87;;;28.60;;
8675;SDS011;4375;52.486;13.424;2022-11-15T05:59:14;56.27;;;26.57;;
8675;SDS011;4375;52.486;13.424;2022-11-15T06:01:40;56.53;;;26.20;;
8675;SDS011;4375;52.486;13.424;2022-11-15T06:04:06;58.57;;;27.70;;
8675;SDS011;4375;52.486;13.424;2022-11-15T06:06:32;62.30;;;29.10;;
8675;SDS011;4375;52.486;13.424;2022-11-15T06:08:58;57.97;;;26.27;;
8675;SDS011;4375;52.486;13.424;2022-11-15T06:11:23;53.67;;;27.00;;
8675;SDS011;4375;52.486;13.424;2022-11-15T06:13:49;54.83;;;27.43;;
8675;SDS011;4375;52.486;13.424;2022-11-15T06:16:14;67.00;;;27.73;;
8675;SDS011;4375;52.486;13.424;2022-11-15T06:18:40;59.73;;;27.67;;
8675;SDS011;4375;52.486;13.424;2022-11-15T06:21:06;57.60;;;26.90;;
8675;SDS011;4375;52.486;13.424;2022-11-15T06:23:32;58.27;;;27.57;;
8675;SDS011;4375;52.486;13.424;2022-11-15T06:25:59;58.50;;;26.90;;
8675;SDS011;4375;52.486;13.424;2022-11-15T06:28:30;58.73;;;28.90;;
8675;SDS011;4375;52.486;13.424;2022-11-15T06:31:01;59.27;;;28.03;;
8675;SDS011;4375;52.486;13.424;2022-11-15T06:33:32;56.30;;;25.97;;
8675;SDS011;4375;52.486;13.424;2022-11-15T06:36:04;54.67;;;27.97;;
8675;SDS011;4375;52.486;13.424;2022-11-15T06:38:32;57.90;;;26.77;;
8675;SDS011;4375;52.486;13.424;2022-11-15T06:41:05;57.40;;;29.03;;
8675;SDS011;4375;52.486;13.424;2022-11-15T06:43:32;54.77;;;27.60;;
8675;SDS011;4375;52.486;13.424;2022-11-15T06:46:00;60.83;;;29.00;;
8675;SDS011;4375;52.486;13.424;2022-11-15T06:48:27;56.57;;;27.30;;
8675;SDS011;4375;52.486;13.424;2022-11-15T06:50:54;59.93;;;29.83;;
8675;SDS011;4375;52.486;13.424;2022-11-15T06:53:21;61.50;;;28.43;;
8675;SDS011;4375;52.486;13.424;2022-11-15T06:55:47;66.27;;;29.23;;
8675;SDS011;4375;52.486;13.424;2022-11-15T06:58:13;67.93;;;28.13;;
8675;SDS011;4375;52.486;13.424;2022-11-15T07:00:38;66.23;;;29.10;;
8675;SDS011;4375;52.486;13.424;2022-11-15T07:03:05;59.23;;;28.60;;
8675;SDS011;4375;52.486;13.424;2022-11-15T07:05:31;56.90;;;27.57;;
8675;SDS011;4375;52.486;13.424;2022-11-15T07:07:57;68.67;;;31.13;;
8675;SDS011;4375;52.486;13.424;2022-11-15T07:10:23;63.30;;;29.47;;
8675;SDS011;4375;52.486;13.424;2022-11-15T07:12:53;53.13;;;27.53;;
8675;SDS011;4375;52.486;13.424;2022-11-15T07:15:20;58.17;;;27.37;;
8675;SDS011;4375;52.486;13.424;2022-11-15T07:17:47;64.57;;;28.60;;
8675;SDS011;4375;52.486;13.424;2022-11-15T07:20:13;57.90;;;26.30;;
8675;SDS011;4375;52.486;13.424;2022-11-15T07:22:39;66.03;;;28.40;;
8675;SDS011;4375;52.486;13.424;2022-11-15T07:25:06;68.23;;;31.10;;
8675;SDS011;4375;52.486;13.424;2022-11-15T07:27:32;59.40;;;28.00;;
8675;SDS011;4375;52.486;13.424;2022-11-15T07:29:58;57.27;;;27.70;;
8675;SDS011;4375;52.486;13.424;2022-11-15T07:32:24;58.23;;;28.60;;
8675;SDS011;4375;52.486;13.424;2022-11-15T07:34:49;58.90;;;28.87;;
8675;SDS011;4375;52.486;13.424;2022-11-15T07:37:15;58.33;;;29.60;;
8675;SDS011;4375;52.486;13.424;2022-11-15T07:39:42;77.83;;;29.57;;
8675;SDS011;4375;52.486;13.424;2022-11-15T07:42:08;61.77;;;29.13;;
8675;SDS011;4375;52.486;13.424;2022-11-15T07:44:52;66.80;;;29.43;;
8675;SDS011;4375;52.486;13.424;2022-11-15T07:47:18;65.93;;;27.87;;
8675;SDS011;4375;52.486;13.424;2022-11-15T07:49:44;70.00;;;31.00;;
8675;SDS011;4375;52.486;13.424;2022-11-15T07:52:11;67.80;;;31.37;;
8675;SDS011;4375;52.486;13.424;2022-11-15T07:54:37;69.33;;;27.60;;
8675;SDS011;4375;52.486;13.424;2022-11-15T07:57:03;63.80;;;29.77;;
8675;SDS011;4375;52.486;13.424;2022-11-15T07:59:29;56.17;;;25.97;;
8675;SDS011;4375;52.486;13.424;2022-11-15T08:01:55;66.87;;;29.50;;
8675;SDS011;4375;52.486;13.424;2022-11-15T08:04:21;72.33;;;28.63;;
8675;SDS011;4375;52.486;13.424;2022-11-15T08:06:46;54.43;;;26.50;;
8675;SDS011;4375;52.486;13.424;2022-11-15T08:09:12;65.67;;;29.73;;
8675;SDS011;4375;52.486;13.424;2022-11-15T08:11:38;57.07;;;26.30;;
8675;SDS011;4375;52.486;13.424;2022-11-15T08:14:03;63.50;;;27.00;;
8675;SDS011;4375;52.486;13.424;2022-11-15T08:16:29;63.47;;;27.50;;
8675;SDS011;4375;52.486;13.424;2022-11-15T08:18:55;64.33;;;26.63;;
8675;SDS011;4375;52.486;13.424;2022-11-15T08:21:20;61.37;;;27.33;;
8675;SDS011;4375;52.486;13.424;2022-11-15T08:23:47;54.60;;;27.37;;
8675;SDS011;4375;52.486;13.424;2022-11-15T08:26:13;56.47;;;25.03;;
8675;SDS011;4375;52.486;13.424;2022-11-15T08:28:39;62.20;;;27.20;;
8675;SDS011;4375;52.486;13.424;2022-11-15T08:31:05;55.70;;;25.40;;
8675;SDS011;4375;52.486;13.424;2022-11-15T08:33:31;56.67;;;25.60;;
8675;SDS011;4375;52.486;13.424;2022-11-15T08:35:58;54.20;;;27.27;;
8675;SDS011;4375;52.486;13.424;2022-11-15T08:38:24;55.87;;;26.43;;
8675;SDS011;4375;52.486;13.424;2022-11-15T08:40:51;55.50;;;25.50;;
8675;SDS011;4375;52.486;13.424;2022-11-15T08:43:18;56.57;;;28.37;;
8675;SDS011;4375;52.486;13.424;2022-11-15T08:45:44;56.67;;;26.37;;
8675;SDS011;4375;52.486;13.424;2022-11-15T08:48:09;53.63;;;24.33;;
8675;SDS011;4375;52.486;13.424;2022-11-15T08:50:35;49.90;;;23.43;;
8675;SDS011;4375;52.486;13.424;2022-11-15T08:53:05;55.23;;;26.70;;
8675;SDS011;4375;52.486;13.424;2022-11-15T08:55:31;55.80;;;26.00;;
8675;SDS011;4375;52.486;13.424;2022-11-15T08:57:57;60.77;;;24.00;;
8675;SDS011;4375;52.486;13.424;2022-11-15T09:00:23;52.13;;;24.03;;
8675;SDS011;4375;52.486;13.424;2022-11-15T09:02:49;60.50;;;23.87;;
8675;SDS011;4375;52.486;13.424;2022-11-15T09:05:14;49.93;;;23.80;;
8675;SDS011;4375;52.486;13.424;2022-11-15T09:07:40;51.97;;;24.00;;
8675;SDS011;4375;52.486;13.424;2022-11-15T09:10:06;50.27;;;22.97;;
8675;SDS011;4375;52.486;13.424;2022-11-15T09:12:34;46.30;;;22.60;;
8675;SDS011;4375;52.486;13.424;2022-11-15T09:15:00;46.10;;;21.77;;
8675;SDS011;4375;52.486;13.424;2022-11-15T09:17:26;44.43;;;20.83;;
8675;SDS011;4375;52.486;13.424;2022-11-15T09:19:51;48.40;;;22.07;;
8675;SDS011;4375;52.486;13.424;2022-11-15T09:22:17;46.30;;;18.60;;
8675;SDS011;4375;52.486;13.424;2022-11-15T09:24:43;45.43;;;19.27;;
8675;SDS011;4375;52.486;13.424;2022-11-15T09:27:08;44.37;;;19.17;;
8675;SDS011;4375;52.486;13.424;2022-11-15T09:29:34;41.03;;;20.00;;
8675;SDS011;4375;52.486;13.424;2022-11-15T09:32:00;44.27;;;19.00;;
8675;SDS011;4375;52.486;13.424;2022-11-15T09:34:25;51.43;;;20.63;;
8675;SDS011;4375;52.486;13.424;2022-11-15T09:36:51;43.50;;;19.90;;
8675;SDS011;4375;52.486;13.424;2022-11-15T09:39:16;44.83;;;19.30;;
8675;SDS011;4375;52.486;13.424;2022-11-15T09:47:16;41.33;;;17.87;;
8675;SDS011;4375;52.486;13.424;2022-11-15T09:49:58;39.17;;;19.37;;
8675;SDS011;4375;52.486;13.424;2022-11-15T09:52:25;40.13;;;17.30;;
8675;SDS011;4375;52.486;13.424;2022-11-15T09:55:02;40.37;;;17.57;;
8675;SDS011;4375;52.486;13.424;2022-11-15T09:57:50;42.33;;;18.27;;
8675;SDS011;4375;52.486;13.424;2022-11-15T10:00:30;36.33;;;16.13;;
8675;SDS011;4375;52.486;13.424;2022-11-15T10:03:48;40.47;;;17.47;;
8675;SDS011;4375;52.486;13.424;2022-11-15T10:06:00;40.13;;;18.07;;
8675;SDS011;4375;52.486;13.424;2022-11-15T10:11:27;36.67;;;16.97;;
8675;SDS011;4375;52.486;13.424;2022-11-15T10:13:56;38.97;;;16.90;;
8675;SDS011;4375;52.486;13.424;2022-11-15T10:22:16;39.70;;;18.00;;
8675;SDS011;4375;52.486;13.424;2022-11-15T10:24:46;41.30;;;17.80;;
8675;SDS011;4375;52.486;13.424;2022-11-15T10:27:13;39.73;;;18.07;;
8675;SDS011;4375;52.486;13.424;2022-11-15T10:29:44;42.33;;;18.80;;
8675;SDS011;4375;52.486;13.424;2022-11-15T10:32:15;35.27;;;16.30;;
8675;SDS011;4375;52.486;13.424;2022-11-15T10:34:42;38.73;;;16.90;;
8675;SDS011;4375;52.486;13.424;2022-11-15T10:37:08;39.47;;;15.07;;
8675;SDS011;4375;52.486;13.424;2022-11-15T10:39:34;39.30;;;16.17;;
8675;SDS011;4375;52.486;13.424;2022-11-15T10:42:46;37.57;;;16.90;;
8675;SDS011;4375;52.486;13.424;2022-11-15T10:44:54;38.73;;;16.90;;
8675;SDS011;4375;52.486;13.424;2022-11-15T10:47:21;37.07;;;16.20;;
8675;SDS011;4375;52.486;13.424;2022-11-15T10:50:04;35.50;;;15.50;;
8675;SDS011;4375;52.486;13.424;2022-11-15T10:52:33;40.53;;;17.23;;
8675;SDS011;4375;52.486;13.424;2022-11-15T10:55:02;41.03;;;17.97;;
8675;SDS011;4375;52.486;13.424;2022-11-15T10:57:31;35.53;;;15.00;;
8675;SDS011;4375;52.486;13.424;2022-11-15T11:00:02;40.03;;;15.90;;
8675;SDS011;4375;52.486;13.424;2022-11-15T11:02:37;36.23;;;16.20;;
8675;SDS011;4375;52.486;13.424;2022-11-15T11:05:25;34.03;;;16.10;;
8675;SDS011;4375;52.486;13.424;2022-11-15T11:07:58;36.20;;;15.70;;
8675;SDS011;4375;52.486;13.424;2022-11-15T11:10:26;38.67;;;16.97;;
8675;SDS011;4375;52.486;13.424;2022-11-15T11:12:52;36.00;;;16.07;;
8675;SDS011;4375;52.486;13.424;2022-11-15T11:15:18;38.60;;;17.70;;
8675;SDS011;4375;52.486;13.424;2022-11-15T11:20:28;32.77;;;14.20;;
8675;SDS011;4375;52.486;13.424;2022-11-15T11:31:47;34.50;;;15.23;;
8675;SDS011;4375;52.486;13.424;2022-11-15T11:34:40;41.20;;;17.40;;
8675;SDS011;4375;52.486;13.424;2022-11-15T11:38:07;41.43;;;17.40;;
8675;SDS011;4375;52.486;13.424;2022-11-15T11:51:08;34.07;;;15.47;;
8675;SDS011;4375;52.486;13.424;2022-11-15T11:54:17;33.27;;;15.13;;
8675;SDS011;4375;52.486;13.424;2022-11-15T11:57:07;37.60;;;15.57;;
8675;SDS011;4375;52.486;13.424;2022-11-15T12:00:00;32.67;;;14.70;;
8675;SDS011;4375;52.486;13.424;2022-11-15T12:02:37;35.30;;;14.23;;
8675;SDS011;4375;52.486;13.424;2022-11-15T12:05:10;34.00;;;13.70;;
8675;SDS011;4375;52.486;13.424;2022-11-15T12:07:47;32.53;;;14.90;;
8675;SDS011;4375;52.486;13.424;2022-11-15T12:10:23;37.30;;;15.07;;
8675;SDS011;4375;52.486;13.424;2022-11-15T12:13:04;32.10;;;13.67;;
8675;SDS011;4375;52.486;13.424;2022-11-15T12:18:37;33.03;;;15.30;;
8675;SDS011;4375;52.486;13.424;2022-11-15T12:21:06;31.53;;;13.50;;
8675;SDS011;4375;52.486;13.424;2022-11-15T12:23:43;33.33;;;13.60;;
8675;SDS011;4375;52.486;13.424;2022-11-15T12:26:29;38.27;;;16.40;;
8675;SDS011;4375;52.486;13.424;2022-11-15T12:29:01;42.47;;;17.20;;
8675;SDS011;4375;52.486;13.424;2022-11-15T12:32:03;33.50;;;15.33;;
8675;SDS011;4375;52.486;13.424;2022-11-15T12:34:38;33.50;;;14.90;;
8675;SDS011;4375;52.486;13.424;2022-11-15T12:42:57;38.17;;;17.37;;
8675;SDS011;4375;52.486;13.424;2022-11-15T12:45:38;44.40;;;17.77;;
8675;SDS011;4375;52.486;13.424;2022-11-15T12:58:47;42.43;;;17.13;;
8675;SDS011;4375;52.486;13.424;2022-11-15T13:06:45;36.20;;;15.50;;
8675;SDS011;4375;52.486;13.424;2022-11-15T13:12:01;35.50;;;14.87;;
8675;SDS011;4375;52.486;13.424;2022-11-15T13:17:27;36.10;;;14.87;;
8675;SDS011;4375;52.486;13.424;2022-11-15T13:25:18;34.73;;;15.63;;
8675;SDS011;4375;52.486;13.424;2022-11-15T13:28:10;35.87;;;14.53;;
8675;SDS011;4375;52.486;13.424;2022-11-15T13:30:40;39.20;;;14.27;;
8675;SDS011;4375;52.486;13.424;2022-11-15T13:35:45;34.60;;;15.23;;
8675;SDS011;4375;52.486;13.424;2022-11-15T13:40:52;31.87;;;14.87;;
8675;SDS011;4375;52.486;13.424;2022-11-15T13:48:52;33.07;;;14.40;;
8675;SDS011;4375;52.486;13.424;2022-11-15T13:51:32;37.07;;;13.60;;
8675;SDS011;4375;52.486;13.424;2022-11-15T13:54:19;31.63;;;12.40;;
8675;SDS011;4375;52.486;13.424;2022-11-15T13:56:59;34.50;;;13.57;;
8675;SDS011;4375;52.486;13.424;2022-11-15T13:59:29;31.03;;;12.77;;
8675;SDS011;4375;52.486;13.424;2022-11-15T14:01:59;30.97;;;12.67;;
8675;SDS011;4375;52.486;13.424;2022-11-15T14:04:55;32.40;;;13.67;;
8675;SDS011;4375;52.486;13.424;2022-11-15T14:07:24;33.20;;;13.20;;
8675;SDS011;4375;52.486;13.424;2022-11-15T14:09:52;31.37;;;13.50;;
8675;SDS011;4375;52.486;13.424;2022-11-15T14:14:50;36.43;;;15.57;;
8675;SDS011;4375;52.486;13.424;2022-11-15T14:17:19;30.43;;;13.23;;
8675;SDS011;4375;52.486;13.424;2022-11-15T14:23:01;33.73;;;14.27;;
8675;SDS011;4375;52.486;13.424;2022-11-15T14:25:32;38.30;;;14.80;;
8675;SDS011;4375;52.486;13.424;2022-11-15T14:28:16;33.67;;;14.90;;
8675;SDS011;4375;52.486;13.424;2022-11-15T14:30:57;35.20;;;14.27;;
8675;SDS011;4375;52.486;13.424;2022-11-15T14:36:19;36.60;;;16.17;;
8675;SDS011;4375;52.486;13.424;2022-11-15T14:38:45;33.73;;;15.67;;
8675;SDS011;4375;52.486;13.424;2022-11-15T14:41:22;39.17;;;16.00;;
8675;SDS011;4375;52.486;13.424;2022-11-15T14:43:50;35.67;;;14.73;;
8675;SDS011;4375;52.486;13.424;2022-11-15T14:46:16;34.87;;;15.50;;
8675;SDS011;4375;52.486;13.424;2022-11-15T14:48:42;32.57;;;14.03;;
8675;SDS011;4375;52.486;13.424;2022-11-15T14:51:10;41.43;;;15.37;;
8675;SDS011;4375;52.486;13.424;2022-11-15T14:53:41;32.20;;;14.93;;
8675;SDS011;4375;52.486;13.424;2022-11-15T14:56:08;33.70;;;14.53;;
8675;SDS011;4375;52.486;13.424;2022-11-15T14:58:34;46.57;;;16.47;;
8675;SDS011;4375;52.486;13.424;2022-11-15T15:00:59;36.10;;;16.00;;
8675;SDS011;4375;52.486;13.424;2022-11-15T15:03:33;34.13;;;15.60;;
8675;SDS011;4375;52.486;13.424;2022-11-15T15:05:58;39.73;;;17.33;;
8675;SDS011;4375;52.486;13.424;2022-11-15T15:08:24;38.27;;;16.87;;
8675;SDS011;4375;52.486;13.424;2022-11-15T15:10:50;39.53;;;16.77;;
8675;SDS011;4375;52.486;13.424;2022-11-15T15:13:19;37.07;;;17.07;;
8675;SDS011;4375;52.486;13.424;2022-11-15T15:15:47;39.27;;;17.20;;
8675;SDS011;4375;52.486;13.424;2022-11-15T15:18:14;38.80;;;18.50;;
8675;SDS011;4375;52.486;13.424;2022-11-15T15:23:44;36.83;;;16.67;;
8675;SDS011;4375;52.486;13.424;2022-11-15T15:26:09;37.47;;;17.20;;
8675;SDS011;4375;52.486;13.424;2022-11-15T15:28:35;36.60;;;17.50;;
8675;SDS011;4375;52.486;13.424;2022-11-15T15:31:02;36.60;;;15.53;;
8675;SDS011;4375;52.486;13.424;2022-11-15T15:33:28;34.27;;;16.23;;
8675;SDS011;4375;52.486;13.424;2022-11-15T15:35:54;37.60;;;17.87;;
8675;SDS011;4375;52.486;13.424;2022-11-15T15:38:19;43.63;;;18.93;;
8675;SDS011;4375;52.486;13.424;2022-11-15T15:40:46;38.53;;;17.13;;
8675;SDS011;4375;52.486;13.424;2022-11-15T15:43:12;36.17;;;17.30;;
8675;SDS011;4375;52.486;13.424;2022-11-15T15:45:39;38.07;;;17.77;;
8675;SDS011;4375;52.486;13.424;2022-11-15T15:48:13;36.57;;;17.60;;
8675;SDS011;4375;52.486;13.424;2022-11-15T15:50:39;35.90;;;16.80;;
8675;SDS011;4375;52.486;13.424;2022-11-15T15:53:07;36.03;;;18.20;;
8675;SDS011;4375;52.486;13.424;2022-11-15T15:55:35;40.83;;;19.20;;
8675;SDS011;4375;52.486;13.424;2022-11-15T15:58:01;39.33;;;18.13;;
8675;SDS011;4375;52.486;13.424;2022-11-15T16:00:28;41.40;;;21.27;;
8675;SDS011;4375;52.486;13.424;2022-11-15T16:02:54;43.20;;;20.63;;
8675;SDS011;4375;52.486;13.424;2022-11-15T16:05:20;38.07;;;20.27;;
8675;SDS011;4375;52.486;13.424;2022-11-15T16:07:46;50.47;;;24.30;;
8675;SDS011;4375;52.486;13.424;2022-11-15T16:12:51;41.23;;;19.63;;
8675;SDS011;4375;52.486;13.424;2022-11-15T16:15:18;41.73;;;20.80;;
8675;SDS011;4375;52.486;13.424;2022-11-15T16:17:49;42.50;;;18.53;;
8675;SDS011;4375;52.486;13.424;2022-11-15T16:22:48;38.67;;;18.87;;
8675;SDS011;4375;52.486;13.424;2022-11-15T16:25:14;40.53;;;18.90;;
8675;SDS011;4375;52.486;13.424;2022-11-15T16:27:40;42.27;;;19.10;;
8675;SDS011;4375;52.486;13.424;2022-11-15T16:30:12;43.60;;;20.77;;
8675;SDS011;4375;52.486;13.424;2022-11-15T16:32:40;86.03;;;41.60;;
8675;SDS011;4375;52.486;13.424;2022-11-15T16:35:07;52.50;;;25.90;;
8675;SDS011;4375;52.486;13.424;2022-11-15T16:37:42;46.23;;;24.53;;
8675;SDS011;4375;52.486;13.424;2022-11-15T16:40:17;42.83;;;21.90;;
8675;SDS011;4375;52.486;13.424;2022-11-15T16:42:50;56.60;;;31.33;;
8675;SDS011;4375;52.486;13.424;2022-11-15T16:45:16;48.67;;;24.70;;
8675;SDS011;4375;52.486;13.424;2022-11-15T16:47:41;48.63;;;24.33;;
8675;SDS011;4375;52.486;13.424;2022-11-15T16:50:29;52.27;;;25.03;;
8675;SDS011;4375;52.486;13.424;2022-11-15T16:52:55;47.23;;;24.17;;
8675;SDS011;4375;52.486;13.424;2022-11-15T16:55:23;45.03;;;25.20;;
8675;SDS011;4375;52.486;13.424;2022-11-15T16:57:50;52.40;;;25.80;;
8675;SDS011;4375;52.486;13.424;2022-11-15T17:00:19;52.40;;;29.33;;
8675;SDS011;4375;52.486;13.424;2022-11-15T17:02:46;47.00;;;23.90;;
8675;SDS011;4375;52.486;13.424;2022-11-15T17:05:14;52.43;;;24.90;;